Pagina principale
METAR-TAF:

METAR-TAF

Aeroporti :

Bari, Italia

Aeroporto di Bari-Palese

latitudine: 41-08N, longitudine: 016-47E, altezza: 34 m

Osservazione

Il bollettino è stato emesso 27 minuti fa, alle 11:50 UTC
Vento 7 kt da nord-ovest, variando fra ovest e nord/nord-ovest
Temperature 15°C
Umidità 55%
Pressione 1011 hPa
Visibilità 10 km o più
Poco nuvoloso ad un'altezza di 2500 ft

METAR: LIBD 191150Z 31007KT 270V340 9999 FEW025 15/06 Q1011

Ora: 13:17 (12:17 UTC)

Previsione

Il bollettino è stato emesso 1 ora e 17 minuti fa, alle 11:00 UTC
Previsione valida dal 19 alle 12 UTC al 20 alle 12 UTC
Vento 12 kt da ovest/nord-ovest
Visibilità 10 km o più
Nubi sparse ad un'altezza di 3000 ft
Temporaneamente
dal 19 alle 21 UTC al 20 alle 02 UTC
Visibilità: 4000 m
rovesci di pioggia
Evoluzione graduale
dal 20 alle 02 UTC al 20 alle 04 UTC

TAF: LIBD 191100Z 1912/2012 29012KT 9999 SCT030 TEMPO 1921/2002 4000 SHRA BECMG 2002/2004

Osservazioni e previsioni meteorologiche di più di 4000 aeroporti (messaggi METAR e TAF).

Le stazioni disponibili sono rappresentate dai dischi gialli e rossi sulla carta.

Puntare il mouse per vedere il nome della stazione.

Clicca sopra per visualizzare le osservazioni e previsioni meteorologiche.

Per cambiare la mappa : fare clic sui pulsanti verdi con una croce nera per ingrandire, il pulsante verde con un trattino per diminuire, o sulla freccia verde per le mappe adiacenti.


METAR-TAF: